Time;durP1;ratioP1;P1;durP2;ratioP2;P2;SDS_P1;SDS_P2;PMS_P1;PMS_P2;Temp;Humidity;BMP_temperature;BMP_pressure;BME280_temperature;BME280_humidity;BME280_pressure;Samples;Min_cycle;Max_cycle;Signal;HPM_P1;HPM_P2
2021/10/21 00:01:27;;;;;;;6.12;5.30;;;;;;;14.78;72.90;99372.35;1652170;86;21537;-82
2021/10/21 00:03:55;;;;;;;5.95;4.92;;;;;;;14.78;72.93;99357.78;1652414;86;21059;-82
2021/10/21 00:06:22;;;;;;;8.50;5.42;;;;;;;14.77;72.96;99359.99;1651802;86;21792;-82
2021/10/21 00:08:48;;;;;;;7.67;5.42;;;;;;;14.77;73.05;99343.67;1652204;86;21087;-82
2021/10/21 00:11:15;;;;;;;7.12;5.35;;;;;;;14.79;73.11;99337.03;1651982;86;21023;-82
2021/10/21 00:13:42;;;;;;;7.03;5.53;;;;;;;14.83;73.21;99333.44;1652122;86;21138;-82
2021/10/21 00:16:09;;;;;;;7.15;5.50;;;;;;;14.87;73.23;99334.27;1652076;86;21611;-82
2021/10/21 00:18:36;;;;;;;7.50;5.28;;;;;;;14.90;73.24;99334.20;1652079;86;21781;-82
2021/10/21 00:21:04;;;;;;;7.15;5.20;;;;;;;14.93;73.26;99340.33;1651101;86;21017;-82
2021/10/21 00:23:31;;;;;;;7.42;5.40;;;;;;;14.96;73.28;99333.67;1652177;86;21102;-82
2021/10/21 00:25:59;;;;;;;10.93;5.67;;;;;;;15.00;73.28;99326.55;1652059;86;21116;-82
2021/10/21 00:28:26;;;;;;;7.90;5.78;;;;;;;15.04;73.31;99322.08;1651934;86;21106;-82
2021/10/21 00:30:53;;;;;;;8.53;6.62;;;;;;;15.09;73.29;99314.48;1651107;85;21800;-83
2021/10/21 00:33:20;;;;;;;8.48;6.10;;;;;;;15.10;73.22;99313.56;1651945;86;21495;-83
2021/10/21 00:35:49;;;;;;;9.03;5.10;;;;;;;15.11;73.17;99315.78;1651915;86;21102;-82
2021/10/21 00:38:15;;;;;;;6.25;5.30;;;;;;;15.13;73.22;99309.55;1649646;86;21253;-83
2021/10/21 00:40:42;;;;;;;6.70;5.58;;;;;;;15.16;73.21;99301.98;1652124;86;21575;-82
2021/10/21 00:43:09;;;;;;;7.25;4.70;;;;;;;15.16;73.21;99298.91;1651932;86;22691;-83
2021/10/21 00:45:36;;;;;;;5.70;5.08;;;;;;;15.18;73.18;99295.34;1650829;86;21110;-83
2021/10/21 00:48:04;;;;;;;6.50;5.10;;;;;;;15.17;73.17;99295.80;1650414;86;21572;-82
2021/10/21 00:50:32;;;;;;;7.75;4.90;;;;;;;15.19;73.19;99282.52;1650515;86;21098;-82
2021/10/21 00:52:59;;;;;;;6.58;5.03;;;;;;;15.21;73.23;99268.79;1650580;86;21094;-82
2021/10/21 00:55:27;;;;;;;5.28;4.78;;;;;;;15.21;73.16;99288.21;1650438;86;22479;-81
2021/10/21 00:57:57;;;;;;;6.05;4.83;;;;;;;15.22;73.22;99286.00;1652210;85;21127;-82
2021/10/21 01:00:24;;;;;;;8.08;4.55;;;;;;;15.25;73.25;99283.27;1654303;85;21630;-82
2021/10/21 01:02:51;;;;;;;11.75;5.20;;;;;;;15.26;73.22;99288.11;1654782;84;21134;-82
2021/10/21 01:05:18;;;;;;;6.83;5.60;;;;;;;15.27;73.18;99280.59;1654895;85;21595;-83
2021/10/21 01:07:45;;;;;;;7.05;5.05;;;;;;;15.28;73.18;99285.02;1654723;84;21725;-82
2021/10/21 01:10:12;;;;;;;6.37;5.10;;;;;;;15.28;73.18;99280.58;1654591;84;21094;-82
2021/10/21 01:12:38;;;;;;;7.85;5.08;;;;;;;15.28;73.16;99277.06;1654680;85;21146;-82
2021/10/21 01:15:25;;;;;;;10.60;5.33;;;;;;;15.27;73.18;99274.84;1654705;85;21571;-82
2021/10/21 01:17:53;;;;;;;8.23;5.40;;;;;;;15.26;73.13;99265.58;1654608;85;21110;-82
2021/10/21 01:20:21;;;;;;;6.30;5.60;;;;;;;15.24;73.19;99253.70;1654748;84;21622;-82
2021/10/21 01:22:48;;;;;;;6.97;5.55;;;;;;;15.25;73.22;99239.53;1654605;86;21580;-82
2021/10/21 01:25:15;;;;;;;8.90;5.30;;;;;;;15.25;73.20;99230.26;1654690;86;21098;-82
2021/10/21 01:27:43;;;;;;;8.18;5.30;;;;;;;15.23;73.15;99225.44;1654795;85;21163;-83
2021/10/21 01:30:22;;;;;;;7.50;5.35;;;;;;;15.20;73.19;99221.51;1654747;85;21051;-83
2021/10/21 01:32:49;;;;;;;7.15;5.55;;;;;;;15.21;73.25;99229.03;1654665;86;21791;-83
2021/10/21 01:35:16;;;;;;;7.50;5.78;;;;;;;15.19;73.26;99223.75;1654236;86;21122;-83
2021/10/21 01:37:43;;;;;;;8.45;5.53;;;;;;;15.19;73.29;99215.80;1654808;86;21604;-82
2021/10/21 01:40:11;;;;;;;8.00;5.10;;;;;;;15.22;73.29;99213.53;1655049;85;21106;-82
2021/10/21 01:42:39;;;;;;;6.47;5.00;;;;;;;15.20;73.27;99204.73;1654688;84;21109;-83
2021/10/21 01:45:23;;;;;;;7.53;5.28;;;;;;;15.18;73.28;99206.09;1654420;85;21788;-82
2021/10/21 01:47:50;;;;;;;5.83;5.08;;;;;;;15.16;73.26;99194.64;1653110;86;21142;-82
2021/10/21 01:50:19;;;;;;;8.90;5.17;;;;;;;15.16;73.30;99182.72;1650247;85;21100;-82
2021/10/21 01:52:49;;;;;;;8.13;4.90;;;;;;;15.15;73.32;99177.87;1642239;87;21132;-82
2021/10/21 01:55:14;;;;;;;6.62;4.85;;;;;;;15.14;73.32;99176.11;1641723;87;21189;-82
2021/10/21 01:57:46;;;;;;;10.03;5.60;;;;;;;15.12;73.37;99171.30;1624611;86;21573;-82
2021/10/21 02:00:15;;;;;;;6.85;5.35;;;;;;;15.14;73.40;99158.89;1649580;85;21164;-82
2021/10/21 02:02:44;;;;;;;6.78;5.28;;;;;;;15.15;73.40;99152.70;1649712;85;21092;-83
2021/10/21 02:05:12;;;;;;;5.92;4.92;;;;;;;15.16;73.43;99166.81;1650222;85;21105;-82
2021/10/21 02:07:38;;;;;;;7.80;5.30;;;;;;;15.16;73.46;99149.59;1650091;85;21192;-82
2021/10/21 02:10:07;;;;;;;8.30;5.15;;;;;;;15.19;73.46;99161.47;1650169;85;21768;-83
2021/10/21 02:12:35;;;;;;;7.40;5.22;;;;;;;15.19;73.42;99160.14;1649487;85;21101;-83
2021/10/21 02:15:02;;;;;;;6.85;5.15;;;;;;;15.18;73.42;99162.35;1650098;85;21645;-83
2021/10/21 02:17:29;;;;;;;6.15;5.05;;;;;;;15.16;73.42;99163.73;1650037;85;21112;-82
2021/10/21 02:19:59;;;;;;;6.85;5.45;;;;;;;15.17;73.46;99148.70;1650061;86;21129;-82
2021/10/21 02:22:24;;;;;;;8.73;5.22;;;;;;;15.16;73.45;99146.94;1649837;85;21906;-83
2021/10/21 02:24:52;;;;;;;9.88;4.90;;;;;;;15.14;73.48;99144.31;1649943;85;21116;-83
2021/10/21 02:27:21;;;;;;;7.37;5.12;;;;;;;15.13;73.51;99139.06;1649807;85;21129;-82
2021/10/21 02:29:47;;;;;;;10.25;5.05;;;;;;;15.12;73.55;99147.45;1649899;86;21128;-83
2021/10/21 02:32:14;;;;;;;9.40;5.45;;;;;;;15.12;73.58;99144.80;1650098;85;21136;-82
2021/10/21 02:34:41;;;;;;;8.05;5.12;;;;;;;15.11;73.59;99148.37;1650011;85;22572;-83
2021/10/21 02:37:08;;;;;;;8.25;5.17;;;;;;;15.11;73.63;99147.04;1650032;85;21092;-83
2021/10/21 02:39:34;;;;;;;5.87;5.03;;;;;;;15.10;73.65;99145.28;1649932;86;21029;-82
2021/10/21 02:42:03;;;;;;;7.28;5.55;;;;;;;15.09;73.66;99139.58;1630357;86;21108;-83
2021/10/21 02:44:30;;;;;;;8.68;5.50;;;;;;;15.08;73.68;99136.95;1649913;86;21112;-82
2021/10/21 02:46:56;;;;;;;8.63;5.30;;;;;;;15.08;73.77;99127.22;1649994;86;21807;-83
2021/10/21 02:49:23;;;;;;;11.25;6.20;;;;;;;15.07;73.73;99119.29;1650021;86;21081;-83
2021/10/21 02:51:52;;;;;;;8.58;5.53;;;;;;;15.04;73.75;99111.42;1630668;86;21652;-83
2021/10/21 02:54:18;;;;;;;7.62;5.65;;;;;;;15.01;73.71;99118.09;1650057;86;21124;-83
2021/10/21 02:56:45;;;;;;;7.95;5.55;;;;;;;14.97;73.79;99114.16;1650020;86;21093;-84
2021/10/21 02:59:12;;;;;;;6.17;5.37;;;;;;;14.94;73.86;99112.02;1643899;85;21758;-84
2021/10/21 03:01:39;;;;;;;7.95;5.47;;;;;;;14.93;73.94;99110.30;1642121;85;21077;-84
2021/10/21 03:04:06;;;;;;;7.25;5.87;;;;;;;14.90;74.00;99110.34;1642009;85;21113;-83
2021/10/21 03:06:33;;;;;;;8.88;5.20;;;;;;;14.88;74.06;99118.77;1641805;87;21049;-83
2021/10/21 03:09:00;;;;;;;7.87;5.15;;;;;;;14.88;74.14;99110.36;1641286;87;21144;-83
2021/10/21 03:11:27;;;;;;;9.38;5.62;;;;;;;14.90;74.17;99105.04;1641870;85;21524;-83
2021/10/21 03:13:53;;;;;;;6.60;5.62;;;;;;;14.85;74.10;99098.52;1641996;87;21380;-83
2021/10/21 03:16:20;;;;;;;11.43;5.55;;;;;;;14.83;74.15;99104.73;1642166;85;21677;-83
2021/10/21 03:18:47;;;;;;;7.35;5.28;;;;;;;14.80;74.22;99110.97;1642078;87;21077;-83
2021/10/21 03:21:14;;;;;;;6.20;5.47;;;;;;;14.80;74.34;99116.27;1641856;85;21180;-83
2021/10/21 03:23:43;;;;;;;10.93;5.67;;;;;;;14.79;74.35;99114.53;1641772;87;21085;-82
2021/10/21 03:26:10;;;;;;;7.50;5.70;;;;;;;14.79;74.37;99111.89;1642394;85;21087;-82
2021/10/21 03:28:37;;;;;;;7.60;5.78;;;;;;;14.79;74.38;99106.59;1642361;85;21120;-82
2021/10/21 03:31:04;;;;;;;6.15;5.50;;;;;;;14.76;74.41;99107.50;1641450;87;21140;-82
2021/10/21 03:33:30;;;;;;;9.30;5.97;;;;;;;14.75;74.40;99092.95;1642229;87;21112;-82
2021/10/21 03:36:00;;;;;;;8.03;5.70;;;;;;;14.72;74.39;99088.59;1641522;85;22536;-82
2021/10/21 03:38:27;;;;;;;8.40;6.12;;;;;;;14.68;74.41;99092.67;1642715;86;21606;-83
2021/10/21 03:40:54;;;;;;;9.68;6.20;;;;;;;14.67;74.47;99082.50;1642568;86;21703;-82
2021/10/21 03:43:23;;;;;;;8.25;5.90;;;;;;;14.65;74.51;99082.12;1641909;86;21108;-83
2021/10/21 03:45:50;;;;;;;8.48;5.37;;;;;;;14.62;74.51;99065.85;1641898;87;21126;-82
2021/10/21 03:48:17;;;;;;;11.35;6.10;;;;;;;14.61;74.61;99071.17;1641895;85;21779;-82
2021/10/21 03:50:47;;;;;;;9.10;5.67;;;;;;;14.62;74.70;99082.17;1642056;86;21168;-82
2021/10/21 03:53:13;;;;;;;6.62;5.75;;;;;;;14.62;74.66;99068.50;1641979;86;21118;-82
2021/10/21 03:55:42;;;;;;;6.60;4.92;;;;;;;14.60;74.68;99063.66;1642126;87;21113;-82
2021/10/21 03:58:09;;;;;;;9.10;5.62;;;;;;;14.61;74.77;99067.20;1641281;85;21169;-82
2021/10/21 04:00:36;;;;;;;7.20;6.12;;;;;;;14.62;74.72;99076.88;1643069;85;21799;-81
2021/10/21 04:03:03;;;;;;;8.98;6.35;;;;;;;14.60;74.73;99070.27;1642333;86;21682;-82
2021/10/21 04:05:30;;;;;;;7.87;6.10;;;;;;;14.59;74.76;99061.92;1641995;85;21179;-82
2021/10/21 04:07:56;;;;;;;9.25;6.87;;;;;;;14.60;74.73;99065.44;1642175;85;21128;-82
2021/10/21 04:10:23;;;;;;;8.55;6.25;;;;;;;14.57;74.74;99064.59;1641394;86;21187;-82
2021/10/21 04:12:52;;;;;;;10.60;7.20;;;;;;;14.57;74.78;99070.35;1642007;87;21101;-83
2021/10/21 04:15:24;;;;;;;11.48;7.40;;;;;;;14.56;74.80;99059.29;1641567;86;21367;-82
2021/10/21 04:17:47;;;;;;;11.83;7.67;;;;;;;14.56;74.87;99060.61;1641560;87;21667;-83
2021/10/21 04:20:14;;;;;;;9.73;7.17;;;;;;;14.54;74.88;99059.31;1642307;85;21761;-83
2021/10/21 04:22:41;;;;;;;9.15;7.20;;;;;;;14.53;74.88;99059.37;1642285;86;21124;-84
2021/10/21 04:25:08;;;;;;;8.83;6.62;;;;;;;14.52;74.93;99040.39;1641845;85;22368;-83
2021/10/21 04:27:34;;;;;;;13.45;9.00;;;;;;;14.52;74.97;99035.10;1641996;85;21089;-83
2021/10/21 04:30:02;;;;;;;12.07;8.18;;;;;;;14.51;74.97;99024.97;1642193;87;21638;-82
2021/10/21 04:32:32;;;;;;;10.53;6.62;;;;;;;14.50;75.02;99019.23;1642043;87;21101;-83
2021/10/21 04:34:58;;;;;;;10.25;7.05;;;;;;;14.50;75.09;99008.65;1641973;87;21685;-83
2021/10/21 04:37:28;;;;;;;10.40;7.17;;;;;;;14.50;75.15;99020.56;1642267;85;21847;-83
2021/10/21 04:39:55;;;;;;;9.00;6.83;;;;;;;14.52;75.17;99002.00;1642089;87;21125;-83
2021/10/21 04:42:22;;;;;;;14.58;7.72;;;;;;;14.55;75.21;98997.98;1642283;86;21132;-83
2021/10/21 04:44:49;;;;;;;10.03;6.42;;;;;;;14.55;75.22;98994.02;1642118;86;21168;-82
2021/10/21 04:47:15;;;;;;;8.93;6.03;;;;;;;14.56;75.26;98991.34;1641905;87;21105;-82
2021/10/21 04:49:44;;;;;;;7.05;6.22;;;;;;;14.56;75.25;98988.70;1641932;86;21725;-82
2021/10/21 04:52:11;;;;;;;8.98;7.15;;;;;;;14.58;75.27;98983.38;1642222;87;21077;-82
2021/10/21 04:54:38;;;;;;;9.45;6.70;;;;;;;14.58;75.31;98973.69;1642355;87;21112;-82
2021/10/21 04:57:07;;;;;;;8.88;7.70;;;;;;;14.60;75.32;98955.09;1642362;87;21099;-82
2021/10/21 04:59:35;;;;;;;14.53;8.00;;;;;;;14.60;75.31;98945.83;1607777;87;21689;-82
2021/10/21 05:02:02;;;;;;;12.03;7.97;;;;;;;14.60;75.30;98952.45;1620630;87;21831;-82
2021/10/21 05:04:29;;;;;;;11.90;10.00;;;;;;;14.60;75.28;98944.50;1620813;87;21111;-82
2021/10/21 05:06:56;;;;;;;11.55;7.08;;;;;;;14.58;75.27;98939.69;1620428;87;21107;-82
2021/10/21 05:09:22;;;;;;;12.63;8.30;;;;;;;14.57;75.29;98932.20;1621166;87;21577;-81
2021/10/21 05:11:49;;;;;;;11.38;6.72;;;;;;;14.56;75.33;98925.16;1620478;87;21141;-81
2021/10/21 05:14:18;;;;;;;8.55;6.50;;;;;;;14.56;75.34;98918.53;1621773;86;21814;-82
2021/10/21 05:16:48;;;;;;;13.88;8.65;;;;;;;14.56;75.37;98909.69;1616035;87;21098;-80
2021/10/21 05:19:13;;;;;;;11.95;5.97;;;;;;;14.56;75.36;98900.43;1618853;86;21067;-80
2021/10/21 05:21:40;;;;;;;10.38;7.35;;;;;;;14.55;75.41;98894.73;1603112;88;21631;-83
2021/10/21 05:24:08;;;;;;;14.40;6.50;;;;;;;14.55;75.40;98907.97;1619824;88;21110;-83
2021/10/21 05:26:38;;;;;;;12.75;8.58;;;;;;;14.54;75.38;98903.10;1602547;89;21894;-84
2021/10/21 05:29:05;;;;;;;14.33;7.87;;;;;;;14.52;75.41;98902.27;1602310;89;21497;-83
2021/10/21 05:31:32;;;;;;;12.28;7.80;;;;;;;14.52;75.43;98896.11;1619726;86;21563;-84
2021/10/21 05:33:58;;;;;;;14.87;7.58;;;;;;;14.51;75.42;98912.45;1602330;89;21107;-81
2021/10/21 05:36:28;;;;;;;8.63;6.33;;;;;;;14.52;75.48;98910.67;1602126;88;21664;-83
2021/10/21 05:38:58;;;;;;;16.70;12.68;;;;;;;14.52;75.49;98904.91;1602103;87;21758;-86
2021/10/21 05:41:22;;;;;;;12.70;7.37;;;;;;;14.52;75.46;98915.50;1619144;87;21144;-82
2021/10/21 05:43:49;;;;;;;10.45;6.50;;;;;;;14.53;75.46;98921.23;1619826;86;21158;-82
2021/10/21 05:46:19;;;;;;;7.22;5.62;;;;;;;14.56;75.47;98909.69;1602538;88;21161;-85
2021/10/21 05:48:45;;;;;;;7.42;6.58;;;;;;;14.56;75.51;98898.67;1619684;87;21131;-87
2021/10/21 05:51:12;;;;;;;9.50;6.60;;;;;;;14.60;75.41;98892.00;1602639;88;21937;-88
2021/10/21 05:53:39;;;;;;;10.95;6.65;;;;;;;14.60;75.38;98890.68;1602243;87;21060;-82
2021/10/21 05:56:05;;;;;;;10.43;7.90;;;;;;;14.60;75.40;98877.44;1619802;88;21106;-82
2021/10/21 05:58:34;;;;;;;11.43;7.00;;;;;;;14.60;75.38;98876.98;1588713;87;21130;-82
2021/10/21 06:01:01;;;;;;;8.30;5.90;;;;;;;14.63;75.35;98874.73;1616999;88;21141;-82
2021/10/21 06:03:32;;;;;;;15.55;12.00;;;;;;;14.64;75.37;98875.14;1617512;86;21788;-83
2021/10/21 06:05:57;;;;;;;7.95;5.97;;;;;;;14.67;75.37;98868.00;1616824;88;21109;-82
2021/10/21 06:08:26;;;;;;;10.68;6.12;;;;;;;14.71;75.34;98856.89;1616706;87;21137;-82
2021/10/21 06:10:55;;;;;;;8.53;6.45;;;;;;;14.75;75.31;98843.56;1617168;88;21085;-82
2021/10/21 06:13:22;;;;;;;19.82;13.65;;;;;;;14.81;75.27;98844.31;1617325;88;21176;-82
2021/10/21 06:15:48;;;;;;;9.68;7.28;;;;;;;14.87;75.17;98832.27;1617165;88;22541;-82
2021/10/21 06:18:15;;;;;;;13.98;12.43;;;;;;;14.90;75.04;98818.51;1617089;86;21104;-82
2021/10/21 06:20:42;;;;;;;9.50;6.47;;;;;;;14.96;75.01;98814.84;1617196;87;21204;-82
2021/10/21 06:23:10;;;;;;;9.23;6.22;;;;;;;15.00;74.89;98820.91;1617069;88;21055;-82
2021/10/21 06:25:37;;;;;;;8.50;6.45;;;;;;;15.04;74.77;98819.49;1617104;86;21164;-82
2021/10/21 06:28:04;;;;;;;11.63;10.23;;;;;;;15.09;74.65;98815.39;1617174;88;22612;-82
2021/10/21 06:30:31;;;;;;;9.10;6.20;;;;;;;15.13;74.52;98807.34;1617150;88;21149;-82
2021/10/21 06:32:57;;;;;;;7.78;6.33;;;;;;;15.18;74.38;98797.94;1617333;87;21617;-82
2021/10/21 06:35:24;;;;;;;8.83;6.47;;;;;;;15.21;74.25;98797.02;1617279;88;21110;-82
2021/10/21 06:37:51;;;;;;;7.72;5.92;;;;;;;15.25;74.15;98789.39;1617213;88;21141;-82
2021/10/21 06:40:17;;;;;;;7.45;6.33;;;;;;;15.28;74.03;98785.35;1576525;88;22596;-82
2021/10/21 06:42:44;;;;;;;11.18;7.70;;;;;;;15.31;73.95;98784.78;1617113;87;21132;-82
2021/10/21 06:45:11;;;;;;;15.88;6.10;;;;;;;15.34;73.82;98784.72;1617051;87;21632;-82
2021/10/21 06:47:43;;;;;;;13.05;8.75;;;;;;;15.35;73.75;98767.02;1617211;87;21090;-82
2021/10/21 06:50:10;;;;;;;8.38;6.60;;;;;;;15.38;73.65;98764.30;1616685;87;21602;-82
2021/10/21 06:52:38;;;;;;;12.85;6.87;;;;;;;15.43;73.55;98745.61;1616966;87;21851;-82
2021/10/21 06:55:05;;;;;;;10.58;7.35;;;;;;;15.45;73.48;98739.38;1617007;88;21169;-82
2021/10/21 06:57:32;;;;;;;11.48;7.33;;;;;;;15.51;73.41;98740.99;1617041;88;21097;-82
2021/10/21 06:59:59;;;;;;;11.88;6.33;;;;;;;15.57;73.33;98739.48;1621578;86;21151;-82
2021/10/21 07:02:26;;;;;;;8.28;6.28;;;;;;;15.60;73.22;98729.23;1626270;86;21531;-82
2021/10/21 07:04:52;;;;;;;11.48;7.30;;;;;;;15.64;73.12;98722.50;1626501;88;21890;-82
2021/10/21 07:07:19;;;;;;;9.28;6.83;;;;;;;15.67;73.01;98711.81;1626361;86;21168;-82
2021/10/21 07:09:46;;;;;;;7.62;6.03;;;;;;;15.69;72.91;98706.00;1626415;86;21140;-82
2021/10/21 07:12:13;;;;;;;9.28;6.10;;;;;;;15.73;72.80;98697.51;1626461;88;21515;-82
2021/10/21 07:14:41;;;;;;;7.97;6.45;;;;;;;15.78;72.68;98694.27;1598440;88;21159;-82
2021/10/21 07:17:08;;;;;;;13.50;6.30;;;;;;;15.82;72.59;98689.75;1626546;87;21762;-82
2021/10/21 07:19:35;;;;;;;8.03;6.08;;;;;;;15.86;72.41;98687.41;1626485;87;21182;-82
2021/10/21 07:22:01;;;;;;;9.58;5.78;;;;;;;15.89;72.27;98679.38;1626627;87;21136;-82
2021/10/21 07:24:28;;;;;;;7.15;5.72;;;;;;;15.90;72.20;98670.05;1626538;86;21109;-82
2021/10/21 07:26:56;;;;;;;9.43;5.33;;;;;;;15.94;72.07;98674.34;1626713;87;21140;-82
2021/10/21 07:29:23;;;;;;;6.22;5.20;;;;;;;15.97;71.89;98670.72;1626596;87;22731;-82
2021/10/21 07:31:49;;;;;;;6.42;4.85;;;;;;;16.03;71.79;98659.05;1626335;88;21140;-82
2021/10/21 07:34:16;;;;;;;9.38;5.47;;;;;;;16.08;71.69;98663.30;1626491;88;21212;-82
2021/10/21 07:36:43;;;;;;;7.80;5.80;;;;;;;16.15;71.66;98648.06;1626653;86;21120;-82
2021/10/21 07:39:10;;;;;;;6.33;4.92;;;;;;;16.23;71.48;98646.02;1626549;88;21112;-82
2021/10/21 07:41:37;;;;;;;7.37;5.08;;;;;;;16.28;71.27;98649.41;1626437;87;21984;-82
2021/10/21 07:44:04;;;;;;;5.70;4.55;;;;;;;16.35;70.99;98638.58;1626377;87;21165;-82
2021/10/21 07:46:31;;;;;;;8.60;4.55;;;;;;;16.39;70.85;98609.72;1626503;88;21179;-81
2021/10/21 07:48:57;;;;;;;7.15;4.15;;;;;;;16.42;70.61;98601.19;1626626;87;21606;-82
2021/10/21 07:51:24;;;;;;;6.08;4.35;;;;;;;16.44;70.35;98603.77;1626529;88;21665;-82
2021/10/21 07:53:51;;;;;;;7.60;3.70;;;;;;;16.47;70.21;98593.05;1626565;88;21745;-82
2021/10/21 07:56:18;;;;;;;6.75;4.25;;;;;;;16.49;70.11;98589.41;1626470;86;21105;-82
2021/10/21 07:58:44;;;;;;;6.37;4.12;;;;;;;16.55;69.96;98595.45;1626507;86;21125;-82
2021/10/21 08:01:11;;;;;;;5.60;4.10;;;;;;;16.58;69.86;98581.61;1604656;85;21181;-82
2021/10/21 08:03:38;;;;;;;6.70;4.25;;;;;;;16.60;69.71;98564.30;1601137;88;21095;-83
2021/10/21 08:06:05;;;;;;;7.35;4.00;;;;;;;16.60;69.47;98555.86;1601349;89;22424;-82
2021/10/21 08:08:34;;;;;;;4.25;3.65;;;;;;;16.60;69.30;98587.73;1601168;89;21138;-83
2021/10/21 08:11:00;;;;;;;8.75;4.08;;;;;;;16.60;69.41;98584.22;1601277;89;21131;-82
2021/10/21 08:13:29;;;;;;;6.35;3.62;;;;;;;16.60;69.20;98591.72;1601219;89;21142;-82
2021/10/21 08:15:57;;;;;;;7.10;4.62;;;;;;;16.59;69.09;98559.45;1639606;85;21143;-82
2021/10/21 08:18:23;;;;;;;6.75;3.22;;;;;;;16.61;69.04;98562.92;1639618;85;21961;-82
2021/10/21 08:20:50;;;;;;;6.00;3.50;;;;;;;16.64;68.92;98557.48;1639469;85;21135;-82
2021/10/21 08:23:17;;;;;;;8.23;3.83;;;;;;;16.68;68.75;98552.46;1639619;86;21132;-82
2021/10/21 08:25:44;;;;;;;7.85;3.77;;;;;;;16.76;68.69;98552.22;1639610;86;21217;-82
2021/10/21 08:28:11;;;;;;;4.28;2.90;;;;;;;16.84;68.57;98548.00;1639801;86;21095;-83
2021/10/21 08:30:41;;;;;;;5.47;3.47;;;;;;;16.91;68.29;98524.23;1639578;86;21923;-82
2021/10/21 08:33:07;;;;;;;9.28;3.62;;;;;;;16.95;68.04;98504.63;1639716;85;21044;-82
2021/10/21 08:35:34;;;;;;;4.37;2.95;;;;;;;16.94;67.86;98514.84;1639632;86;21115;-82
2021/10/21 08:38:01;;;;;;;6.97;2.85;;;;;;;16.92;67.83;98508.71;1640064;86;21545;-83
2021/10/21 08:40:29;;;;;;;10.20;2.90;;;;;;;16.95;67.80;98503.30;1639574;86;21166;-83
2021/10/21 08:42:56;;;;;;;4.00;3.20;;;;;;;16.99;67.76;98494.75;1639546;86;21816;-82
2021/10/21 08:45:23;;;;;;;3.00;2.70;;;;;;;17.03;67.69;98493.23;1639564;85;21107;-82
2021/10/21 08:47:54;;;;;;;5.83;2.92;;;;;;;17.11;67.71;98483.64;1620087;87;21106;-82
2021/10/21 08:50:20;;;;;;;5.60;2.70;;;;;;;17.23;67.28;98504.89;1639400;87;21247;-82
2021/10/21 08:52:46;;;;;;;6.28;2.42;;;;;;;17.39;67.16;98500.73;1639740;85;21115;-82
2021/10/21 08:55:13;;;;;;;8.83;2.77;;;;;;;17.50;66.68;98513.62;1639811;86;21758;-83
2021/10/21 08:57:41;;;;;;;3.70;2.70;;;;;;;17.50;66.27;98509.63;1639525;86;21063;-82
2021/10/21 09:00:09;;;;;;;8.70;2.95;;;;;;;17.51;66.20;98517.13;1639638;85;21072;-83
2021/10/21 09:02:47;;;;;;;3.47;2.40;;;;;;;17.45;66.09;98515.58;1639384;86;21117;-82
2021/10/21 09:05:15;;;;;;;5.03;2.52;;;;;;;17.37;66.04;98519.02;1638623;87;21107;-83
2021/10/21 09:07:58;;;;;;;8.08;2.77;;;;;;;17.25;66.09;98513.71;1639399;86;21771;-82
2021/10/21 09:10:25;;;;;;;3.00;2.25;;;;;;;17.09;66.16;98482.36;1640191;86;21561;-83
2021/10/21 09:12:52;;;;;;;4.25;2.27;;;;;;;16.98;66.51;98457.98;1639515;86;21146;-83
2021/10/21 09:15:23;;;;;;;3.83;2.50;;;;;;;16.90;66.73;98487.50;1639933;85;21186;-83
2021/10/21 09:17:51;;;;;;;5.30;3.10;;;;;;;16.89;66.85;98487.56;1639757;85;22310;-83
2021/10/21 09:20:39;;;;;;;4.92;3.00;;;;;;;16.92;67.02;98479.48;1621088;87;21808;-83
2021/10/21 09:23:10;;;;;;;9.80;3.40;;;;;;;16.93;67.13;98488.31;1639592;85;21723;-83
2021/10/21 09:25:38;;;;;;;13.98;4.80;;;;;;;16.92;67.18;98455.56;1639593;86;21123;-82
2021/10/21 09:28:27;;;;;;;5.42;3.30;;;;;;;16.89;67.25;98458.33;1639605;85;21087;-83
2021/10/21 09:31:08;;;;;;;8.73;4.08;;;;;;;16.81;67.32;98457.73;1639508;86;21107;-82
2021/10/21 09:33:57;;;;;;;5.03;3.58;;;;;;;16.77;67.39;98474.23;1639457;86;21818;-82
2021/10/21 09:36:23;;;;;;;3.87;3.30;;;;;;;16.77;67.57;98454.78;1639971;86;21135;-82
2021/10/21 09:38:57;;;;;;;6.10;3.37;;;;;;;16.77;67.65;98445.48;1639708;85;21152;-81
2021/10/21 09:41:27;;;;;;;4.53;3.15;;;;;;;16.77;67.64;98465.41;1639942;86;21111;-83
2021/10/21 09:43:54;;;;;;;5.70;3.60;;;;;;;16.76;67.56;98459.68;1637281;87;21138;-82
2021/10/21 09:46:42;;;;;;;4.03;2.52;;;;;;;16.70;67.42;98468.30;1639887;85;21770;-83
2021/10/21 09:49:22;;;;;;;10.08;3.35;;;;;;;16.65;67.44;98461.42;1639619;86;21008;-82
2021/10/21 09:51:50;;;;;;;6.92;3.17;;;;;;;16.63;67.56;98447.30;1639872;86;21134;-82
2021/10/21 09:54:18;;;;;;;3.92;2.85;;;;;;;16.63;67.47;98438.89;1639337;85;21056;-82
2021/10/21 09:57:03;;;;;;;4.15;2.60;;;;;;;16.63;67.61;98432.25;1639575;86;21075;-82
2021/10/21 09:59:40;;;;;;;3.33;2.33;;;;;;;16.60;67.35;98434.16;1639520;85;21809;-82
2021/10/21 10:02:15;;;;;;;4.08;2.45;;;;;;;16.45;67.29;98440.41;1639372;85;21097;-82
2021/10/21 10:04:42;;;;;;;12.50;2.15;;;;;;;16.31;67.32;98461.27;1639364;87;21577;-83
2021/10/21 10:07:13;;;;;;;5.83;2.10;;;;;;;16.17;66.88;98446.30;1638746;86;21378;-82
2021/10/21 10:09:40;;;;;;;7.33;2.15;;;;;;;15.84;66.94;98423.97;1639116;87;21095;-82
2021/10/21 10:12:08;;;;;;;6.50;2.00;;;;;;;15.62;67.53;98426.45;1623114;88;21846;-83
2021/10/21 10:14:43;;;;;;;1.95;1.57;;;;;;;15.47;67.58;98398.19;1623253;88;21174;-83
2021/10/21 10:17:10;;;;;;;4.33;1.60;;;;;;;15.33;67.99;98382.74;1623331;88;21649;-83
2021/10/21 10:19:45;;;;;;;3.62;1.62;;;;;;;15.15;68.36;98384.19;1623243;88;21083;-82
2021/10/21 10:22:32;;;;;;;2.52;1.80;;;;;;;15.00;68.57;98354.20;1623448;88;21395;-82
2021/10/21 10:24:58;;;;;;;2.75;1.45;;;;;;;14.82;68.67;98333.58;1623391;88;21751;-82
2021/10/21 10:27:30;;;;;;;3.87;1.40;;;;;;;14.72;69.19;98317.98;1604824;88;21701;-82
2021/10/21 10:29:59;;;;;;;3.45;1.80;;;;;;;14.72;69.34;98302.55;1623155;88;21146;-82
2021/10/21 10:32:45;;;;;;;2.22;1.72;;;;;;;14.71;69.51;98303.45;1621963;88;21118;-82
2021/10/21 10:35:17;;;;;;;2.45;2.00;;;;;;;14.73;69.53;98285.73;1622024;87;21858;-82
2021/10/21 10:37:54;;;;;;;2.72;1.22;;;;;;;14.76;69.51;98283.00;1618985;88;22697;-83
2021/10/21 10:40:45;;;;;;;4.75;1.80;;;;;;;14.82;69.47;98273.53;1623327;88;21095;-82
2021/10/21 10:43:14;;;;;;;2.35;1.60;;;;;;;14.85;69.44;98270.80;1623060;88;21663;-82
2021/10/21 10:45:50;;;;;;;3.00;1.40;;;;;;;14.83;69.39;98280.58;1621823;86;21116;-82
2021/10/21 10:48:21;;;;;;;2.70;1.55;;;;;;;14.81;69.38;98275.78;1623525;88;22024;-82
2021/10/21 10:50:50;;;;;;;4.05;1.50;;;;;;;14.85;69.45;98271.27;1620107;87;22583;-83
2021/10/21 10:53:16;;;;;;;4.28;1.57;;;;;;;14.97;69.52;98258.45;1623451;88;21131;-82
2021/10/21 10:55:47;;;;;;;5.90;1.30;;;;;;;15.06;69.40;98280.29;1623481;88;21155;-82
2021/10/21 10:58:27;;;;;;;2.72;1.47;;;;;;;15.08;69.33;98270.50;1623545;88;21149;-82
2021/10/21 11:00:58;;;;;;;6.12;1.80;;;;;;;15.16;69.40;98268.45;1620762;87;21110;-82
2021/10/21 11:03:42;;;;;;;4.20;1.07;;;;;;;15.17;69.26;98270.20;1638299;86;21810;-82
2021/10/21 11:06:10;;;;;;;6.08;1.45;;;;;;;15.15;68.98;98258.79;1637927;86;21062;-82
2021/10/21 11:09:02;;;;;;;1.22;1.00;;;;;;;15.11;69.07;98268.63;1638016;86;21695;-82
2021/10/21 11:11:40;;;;;;;4.58;1.50;;;;;;;15.11;69.06;98267.77;1637829;86;21765;-83
2021/10/21 11:14:10;;;;;;;4.35;1.20;;;;;;;15.14;69.25;98253.06;1637598;86;21110;-82
2021/10/21 11:16:47;;;;;;;2.98;1.15;;;;;;;15.18;69.04;98256.02;1636807;86;21676;-83
2021/10/21 11:19:45;;;;;;;1.77;1.07;;;;;;;15.19;68.96;98241.86;1638284;86;21070;-83
2021/10/21 11:22:22;;;;;;;10.68;1.30;;;;;;;15.19;68.88;98235.23;1638366;86;21548;-83
2021/10/21 11:24:56;;;;;;;5.42;1.32;;;;;;;15.19;68.77;98229.08;1636420;86;21101;-82
2021/10/21 11:27:32;;;;;;;7.28;2.05;;;;;;;15.22;68.83;98223.22;1638323;86;21082;-82
2021/10/21 11:30:23;;;;;;;4.50;1.47;;;;;;;15.24;68.76;98225.36;1638008;86;21795;-83
2021/10/21 11:32:49;;;;;;;9.73;1.42;;;;;;;15.30;68.62;98229.58;1633841;86;21090;-84
2021/10/21 11:35:21;;;;;;;2.27;1.12;;;;;;;15.34;68.62;98228.55;1637958;86;21094;-83
2021/10/21 11:38:02;;;;;;;6.10;1.50;;;;;;;15.38;68.43;98215.59;1638068;86;21074;-84
2021/10/21 11:40:38;;;;;;;8.53;1.70;;;;;;;15.40;68.28;98205.80;1638103;86;21146;-83